createdAt,value
2023-05-07T00:02:10.201Z,56.50
2023-05-07T00:04:42.573Z,55.83
2023-05-07T00:07:12.336Z,64.57
2023-05-07T00:09:42.106Z,54.50
2023-05-07T00:12:12.000Z,64.60
2023-05-07T00:14:41.830Z,56.53
2023-05-07T00:17:11.635Z,57.60
2023-05-07T00:19:43.996Z,60.87
2023-05-07T00:22:13.744Z,58.10
2023-05-07T00:24:43.500Z,62.13
2023-05-07T00:27:13.796Z,62.70
2023-05-07T00:29:43.536Z,65.60
2023-05-07T00:32:13.444Z,67.03
2023-05-07T00:34:46.445Z,61.67
2023-05-07T00:37:16.181Z,61.27
2023-05-07T00:39:45.893Z,62.57
2023-05-07T00:42:16.198Z,63.43
2023-05-07T00:44:46.496Z,66.47
2023-05-07T00:47:17.433Z,67.00
2023-05-07T00:49:49.851Z,73.70
2023-05-07T00:52:21.100Z,73.23
2023-05-07T00:54:51.961Z,70.00
2023-05-07T00:57:22.330Z,67.10
2023-05-07T00:59:52.690Z,67.10
2023-05-07T01:02:22.441Z,71.33
2023-05-07T01:04:54.766Z,73.77
2023-05-07T01:07:26.276Z,76.77
2023-05-07T01:09:56.351Z,69.87
2023-05-07T01:12:26.489Z,71.73
2023-05-07T01:14:56.335Z,69.53
2023-05-07T01:17:26.588Z,75.23
2023-05-07T01:19:59.130Z,69.50
2023-05-07T01:22:37.755Z,73.60
2023-05-07T01:25:09.317Z,67.50
2023-05-07T01:27:42.826Z,70.37
2023-05-07T01:30:14.183Z,68.90
2023-05-07T01:32:49.872Z,60.10
2023-05-07T01:35:23.629Z,61.60
2023-05-07T01:37:57.030Z,65.67
2023-05-07T01:40:28.065Z,68.37
2023-05-07T01:42:58.667Z,64.83
2023-05-07T01:45:29.436Z,66.20
2023-05-07T01:47:59.457Z,63.67
2023-05-07T01:50:29.835Z,70.07
2023-05-07T01:53:02.314Z,65.90
2023-05-07T01:55:32.680Z,62.47
2023-05-07T01:58:02.672Z,64.47
2023-05-07T02:00:32.796Z,70.60
2023-05-07T02:03:02.925Z,73.37
2023-05-07T02:05:46.024Z,76.57
2023-05-07T02:08:25.931Z,71.27
2023-05-07T02:10:55.744Z,69.07
2023-05-07T02:13:26.144Z,66.23
2023-05-07T02:15:55.966Z,74.93
2023-05-07T02:18:27.838Z,68.90
2023-05-07T02:20:57.926Z,63.47
2023-05-07T02:23:30.406Z,66.53
2023-05-07T02:26:00.565Z,64.07
2023-05-07T02:28:30.453Z,68.63
2023-05-07T02:31:03.928Z,73.00
2023-05-07T02:33:34.367Z,71.13
2023-05-07T02:36:10.546Z,67.23
2023-05-07T02:38:48.905Z,66.10
2023-05-07T02:41:18.726Z,71.03
2023-05-07T02:43:48.523Z,75.10
2023-05-07T02:46:18.824Z,71.40
2023-05-07T02:48:53.145Z,70.63
2023-05-07T02:51:26.150Z,70.33
2023-05-07T02:54:02.060Z,79.50
2023-05-07T02:56:32.800Z,81.87
2023-05-07T02:59:02.555Z,75.73
2023-05-07T03:01:37.142Z,81.03
2023-05-07T03:04:09.570Z,74.57
2023-05-07T03:06:39.371Z,70.93
2023-05-07T03:09:12.172Z,77.67
2023-05-07T03:11:42.217Z,88.77
2023-05-07T03:14:11.987Z,74.93
2023-05-07T03:16:42.670Z,70.70
2023-05-07T03:19:12.426Z,70.87
2023-05-07T03:21:42.446Z,70.13
2023-05-07T03:24:14.798Z,80.63
2023-05-07T03:26:44.567Z,76.80
2023-05-07T03:29:14.449Z,68.77
2023-05-07T03:31:44.565Z,62.33
2023-05-07T03:34:14.419Z,63.40
2023-05-07T03:36:44.201Z,59.17
2023-05-07T03:39:18.437Z,60.30
2023-05-07T03:41:48.312Z,58.77
2023-05-07T03:44:18.102Z,55.40
2023-05-07T03:46:48.399Z,58.07
2023-05-07T03:49:18.284Z,58.67
2023-05-07T03:51:48.054Z,50.53
2023-05-07T03:54:20.498Z,52.70
2023-05-07T03:56:51.077Z,54.00
2023-05-07T03:59:20.909Z,57.63
2023-05-07T04:01:51.586Z,53.60
2023-05-07T04:04:23.898Z,49.50
2023-05-07T04:06:54.244Z,52.23
2023-05-07T04:09:27.821Z,45.60
2023-05-07T04:11:59.950Z,44.57
2023-05-07T04:14:29.810Z,45.93
2023-05-07T04:16:59.895Z,41.03
2023-05-07T04:19:30.317Z,43.67
2023-05-07T04:22:00.172Z,39.40
2023-05-07T04:24:35.766Z,39.47
2023-05-07T04:27:07.595Z,39.33
2023-05-07T04:29:37.574Z,40.13
2023-05-07T04:32:08.453Z,44.40
2023-05-07T04:34:38.574Z,37.93
2023-05-07T04:37:08.486Z,36.83
2023-05-07T04:39:41.055Z,37.40
2023-05-07T04:42:11.472Z,35.33
2023-05-07T04:44:41.357Z,34.90
2023-05-07T04:47:11.198Z,37.00
2023-05-07T04:49:42.318Z,44.53
2023-05-07T04:52:13.339Z,36.80
2023-05-07T04:54:46.166Z,41.17
2023-05-07T04:57:16.048Z,41.40
2023-05-07T04:59:46.108Z,44.50
2023-05-07T05:02:16.057Z,41.37
2023-05-07T05:04:46.172Z,39.90
2023-05-07T05:07:16.348Z,45.20
2023-05-07T05:09:48.872Z,43.40
2023-05-07T05:12:18.905Z,47.13
2023-05-07T05:14:48.830Z,41.00
2023-05-07T05:17:19.238Z,41.20
2023-05-07T05:19:49.764Z,43.43
2023-05-07T05:22:20.120Z,45.33
2023-05-07T05:24:52.555Z,39.90
2023-05-07T05:27:22.723Z,43.67
2023-05-07T05:29:52.734Z,44.13
2023-05-07T05:32:22.655Z,40.97
2023-05-07T05:34:54.368Z,40.50
2023-05-07T05:37:24.163Z,41.33
2023-05-07T05:39:57.432Z,41.30
2023-05-07T05:42:29.595Z,38.90
2023-05-07T05:44:59.434Z,41.23
2023-05-07T05:47:30.199Z,38.80
2023-05-07T05:50:00.106Z,39.43
2023-05-07T05:52:29.944Z,42.17
2023-05-07T05:55:02.775Z,42.20
2023-05-07T05:57:32.575Z,41.50
2023-05-07T06:00:02.406Z,36.83
2023-05-07T06:02:34.766Z,44.60
2023-05-07T06:05:04.917Z,36.23
2023-05-07T06:07:35.802Z,37.27
2023-05-07T06:10:09.758Z,33.30
2023-05-07T06:12:39.762Z,40.07
2023-05-07T06:15:10.790Z,38.57
2023-05-07T06:17:41.056Z,35.60
2023-05-07T06:20:14.634Z,35.20
2023-05-07T06:22:44.477Z,35.63
2023-05-07T06:25:18.493Z,30.00
2023-05-07T06:27:48.301Z,43.47
2023-05-07T06:30:18.370Z,29.00
2023-05-07T06:32:48.219Z,31.50
2023-05-07T06:35:18.438Z,32.83
2023-05-07T06:37:48.670Z,31.03
2023-05-07T06:40:26.167Z,31.93
2023-05-07T06:42:56.309Z,29.57
2023-05-07T06:45:33.337Z,34.13
2023-05-07T06:48:03.603Z,30.67
2023-05-07T06:50:37.440Z,29.10
2023-05-07T06:53:07.405Z,28.10
2023-05-07T06:55:39.782Z,25.77
2023-05-07T06:58:10.128Z,29.80
2023-05-07T07:00:41.920Z,32.60
2023-05-07T07:03:12.148Z,24.80
2023-05-07T07:05:43.922Z,23.63
2023-05-07T07:08:14.323Z,24.93
2023-05-07T07:10:46.700Z,27.50
2023-05-07T07:13:16.527Z,21.70
2023-05-07T07:15:47.208Z,23.57
2023-05-07T07:18:17.029Z,22.20
2023-05-07T07:20:47.847Z,21.50
2023-05-07T07:23:17.609Z,23.73
2023-05-07T07:25:50.307Z,21.57
2023-05-07T07:28:20.839Z,22.63
2023-05-07T07:30:50.852Z,22.97
2023-05-07T07:33:21.364Z,26.53
2023-05-07T07:35:51.209Z,22.67
2023-05-07T07:38:20.998Z,21.80
2023-05-07T07:40:54.186Z,21.17
2023-05-07T07:43:24.249Z,25.40
2023-05-07T07:45:54.339Z,21.33
2023-05-07T07:48:24.301Z,23.33
2023-05-07T07:50:54.445Z,21.77
2023-05-07T07:53:24.489Z,19.83
2023-05-07T07:55:59.324Z,19.93
2023-05-07T07:58:31.925Z,20.70
2023-05-07T08:01:02.256Z,18.03
2023-05-07T08:03:33.636Z,19.53
2023-05-07T08:06:05.048Z,19.97
2023-05-07T08:08:36.266Z,17.00
2023-05-07T08:11:08.735Z,19.10
2023-05-07T08:13:40.560Z,19.20
2023-05-07T08:16:10.744Z,17.90
2023-05-07T08:18:40.965Z,17.23
2023-05-07T08:21:10.888Z,22.80
2023-05-07T08:23:40.745Z,23.70
2023-05-07T08:26:14.110Z,19.30
2023-05-07T08:28:43.980Z,20.40
2023-05-07T08:31:13.879Z,18.07
2023-05-07T08:33:45.170Z,20.97
2023-05-07T08:36:14.971Z,19.60
2023-05-07T08:38:46.880Z,21.00
2023-05-07T08:41:19.852Z,20.73
2023-05-07T08:43:52.138Z,18.50
2023-05-07T08:46:24.732Z,17.07
2023-05-07T08:48:58.184Z,16.27
2023-05-07T08:51:28.258Z,17.67
2023-05-07T08:53:58.256Z,15.60
2023-05-07T08:56:35.716Z,15.13
2023-05-07T08:59:05.532Z,15.67
2023-05-07T09:01:36.923Z,16.07
2023-05-07T09:04:08.277Z,16.07
2023-05-07T09:06:39.218Z,15.10
2023-05-07T09:09:09.329Z,13.33
2023-05-07T09:11:42.045Z,14.10
2023-05-07T09:14:12.139Z,11.23
2023-05-07T09:16:45.276Z,11.67
2023-05-07T09:19:15.246Z,9.83
2023-05-07T09:21:48.763Z,11.60
2023-05-07T09:24:20.020Z,9.60
2023-05-07T09:26:52.460Z,12.97
2023-05-07T09:29:22.639Z,10.80
2023-05-07T09:31:52.485Z,11.03
2023-05-07T09:34:22.456Z,12.23
2023-05-07T09:36:52.714Z,10.43
2023-05-07T09:39:23.242Z,17.00
2023-05-07T09:41:55.959Z,12.37
2023-05-07T09:44:35.815Z,13.23
2023-05-07T09:47:09.497Z,12.27
2023-05-07T09:49:50.191Z,9.83
2023-05-07T09:52:24.496Z,10.40
2023-05-07T09:55:00.349Z,12.77
2023-05-07T09:57:35.303Z,15.10
2023-05-07T10:00:10.732Z,12.30
2023-05-07T10:02:53.782Z,9.40
2023-05-07T10:05:34.487Z,10.80
2023-05-07T10:08:05.737Z,11.33
2023-05-07T10:10:39.189Z,15.00
2023-05-07T10:13:15.734Z,14.63
2023-05-07T10:15:51.508Z,13.37
2023-05-07T10:18:24.890Z,14.07
2023-05-07T10:20:57.569Z,14.20
2023-05-07T10:23:28.325Z,12.73
2023-05-07T10:26:03.505Z,12.93
2023-05-07T10:28:42.438Z,13.57
2023-05-07T10:31:35.420Z,13.90
2023-05-07T10:34:11.734Z,14.23
2023-05-07T10:36:43.498Z,14.63
2023-05-07T10:39:14.006Z,14.20
2023-05-07T10:41:44.310Z,12.87
2023-05-07T10:44:29.147Z,13.47
2023-05-07T10:47:10.720Z,19.30
2023-05-07T10:50:27.217Z,14.13
2023-05-07T10:53:25.457Z,10.80
2023-05-07T10:56:32.661Z,12.10
2023-05-07T10:59:35.169Z,13.30
2023-05-07T11:02:15.533Z,12.33
2023-05-07T11:05:26.264Z,11.10
2023-05-07T11:08:08.621Z,13.90
2023-05-07T11:10:55.069Z,16.47
2023-05-07T11:13:48.586Z,11.40
2023-05-07T11:16:29.109Z,12.17
2023-05-07T11:19:57.661Z,11.60
2023-05-07T11:22:44.702Z,19.20
2023-05-07T11:25:29.551Z,14.70
2023-05-07T11:28:11.541Z,10.87
2023-05-07T11:30:47.621Z,14.37
2023-05-07T11:33:21.343Z,13.07
2023-05-07T11:35:54.518Z,13.23
2023-05-07T11:38:29.966Z,17.13
2023-05-07T11:41:01.833Z,14.47
2023-05-07T11:43:32.025Z,14.63
2023-05-07T11:46:11.145Z,13.23
2023-05-07T11:48:42.647Z,15.10
2023-05-07T11:51:13.294Z,18.33
2023-05-07T11:53:46.629Z,20.23
2023-05-07T11:56:17.870Z,13.77
2023-05-07T11:58:49.898Z,13.67
2023-05-07T12:01:20.482Z,14.33
2023-05-07T12:03:50.349Z,14.07
2023-05-07T12:06:20.888Z,14.27
2023-05-07T12:08:53.324Z,15.13
2023-05-07T12:11:27.434Z,16.47
2023-05-07T12:13:59.877Z,17.27
2023-05-07T12:16:30.401Z,15.00
2023-05-07T12:19:00.779Z,12.60
2023-05-07T12:21:30.831Z,13.53
2023-05-07T12:24:03.275Z,12.40
2023-05-07T12:26:33.030Z,14.97
2023-05-07T12:29:02.820Z,23.37
2023-05-07T12:31:32.668Z,16.20
2023-05-07T12:34:02.435Z,14.73
2023-05-07T12:36:40.701Z,17.77
2023-05-07T12:39:13.441Z,16.60
2023-05-07T12:41:59.704Z,14.50
2023-05-07T12:44:33.932Z,14.70
2023-05-07T12:47:06.069Z,14.50
2023-05-07T12:49:39.881Z,16.00
2023-05-07T12:52:10.055Z,14.93
2023-05-07T12:54:42.526Z,12.33
2023-05-07T12:57:13.631Z,10.63
2023-05-07T12:59:44.655Z,12.43
2023-05-07T13:02:14.471Z,13.03
2023-05-07T13:04:45.167Z,10.90
2023-05-07T13:07:14.897Z,12.77
2023-05-07T13:09:49.139Z,12.70
2023-05-07T13:12:18.887Z,12.60
2023-05-07T13:14:48.652Z,11.87
2023-05-07T13:17:19.871Z,13.53
2023-05-07T13:19:49.770Z,10.83
2023-05-07T13:22:19.497Z,10.70
2023-05-07T13:24:51.807Z,12.10
2023-05-07T13:27:21.860Z,11.40
2023-05-07T13:29:51.628Z,10.53
2023-05-07T13:32:21.441Z,11.67
2023-05-07T13:34:51.597Z,10.70
2023-05-07T13:37:21.406Z,14.30
2023-05-07T13:39:53.781Z,10.97
2023-05-07T13:42:23.498Z,14.23
2023-05-07T13:44:53.228Z,10.47
2023-05-07T13:47:24.650Z,11.17
2023-05-07T13:49:54.548Z,9.63
2023-05-07T13:52:24.576Z,10.40
2023-05-07T13:54:57.694Z,15.20
2023-05-07T13:57:27.466Z,10.43
2023-05-07T13:59:57.251Z,9.23
2023-05-07T14:02:27.058Z,11.03
2023-05-07T14:04:56.905Z,8.47
2023-05-07T14:07:26.673Z,8.67
2023-05-07T14:09:59.108Z,11.23
2023-05-07T14:12:29.009Z,10.13
2023-05-07T14:14:58.776Z,8.90
2023-05-07T14:17:28.804Z,9.60
2023-05-07T14:19:58.792Z,9.73
2023-05-07T14:22:28.569Z,11.50
2023-05-07T14:25:06.811Z,10.90
2023-05-07T14:27:37.316Z,10.93
2023-05-07T14:30:07.728Z,14.60
2023-05-07T14:32:38.131Z,13.70
2023-05-07T14:35:08.837Z,14.20
2023-05-07T14:37:38.653Z,12.93
2023-05-07T14:40:12.898Z,14.47
2023-05-07T14:42:43.846Z,18.53
2023-05-07T14:45:14.566Z,15.90
2023-05-07T14:47:44.897Z,14.73
2023-05-07T14:50:14.665Z,17.90
2023-05-07T14:52:44.470Z,12.90
2023-05-07T14:55:16.920Z,13.93
2023-05-07T14:57:46.703Z,13.90
2023-05-07T15:00:17.341Z,19.43
2023-05-07T15:02:47.357Z,12.40
2023-05-07T15:05:18.612Z,14.03
2023-05-07T15:07:48.360Z,14.60
2023-05-07T15:10:20.798Z,13.93
2023-05-07T15:12:50.861Z,12.40
2023-05-07T15:15:20.665Z,13.90
2023-05-07T15:17:51.197Z,15.23
2023-05-07T15:20:21.364Z,15.33
2023-05-07T15:22:51.155Z,13.87
2023-05-07T15:25:23.559Z,13.50
2023-05-07T15:27:53.567Z,13.67
2023-05-07T15:30:23.326Z,12.57
2023-05-07T15:32:53.129Z,14.77
2023-05-07T15:35:23.285Z,13.17
2023-05-07T15:37:53.525Z,16.40
2023-05-07T15:40:26.016Z,13.57
2023-05-07T15:42:58.565Z,13.10
2023-05-07T15:45:28.421Z,17.10
2023-05-07T15:47:58.280Z,13.33
2023-05-07T15:50:29.714Z,11.47
2023-05-07T15:52:59.477Z,13.27
2023-05-07T15:55:32.256Z,13.30
2023-05-07T15:58:02.001Z,12.70
2023-05-07T16:00:32.065Z,22.17
2023-05-07T16:03:02.019Z,12.73
2023-05-07T16:05:31.872Z,17.20
2023-05-07T16:08:01.657Z,15.17
2023-05-07T16:10:34.118Z,12.70
2023-05-07T16:13:04.138Z,12.17
2023-05-07T16:15:33.936Z,14.50
2023-05-07T16:18:03.733Z,14.73
2023-05-07T16:20:33.590Z,16.37
2023-05-07T16:23:03.852Z,13.27
2023-05-07T16:25:36.208Z,13.37
2023-05-07T16:28:06.084Z,16.93
2023-05-07T16:30:35.898Z,14.40
2023-05-07T16:33:05.779Z,14.53
2023-05-07T16:35:35.567Z,13.67
2023-05-07T16:38:10.229Z,15.27
2023-05-07T16:40:44.758Z,13.13
2023-05-07T16:43:14.617Z,15.13
2023-05-07T16:45:44.323Z,15.87
2023-05-07T16:48:14.054Z,13.80
2023-05-07T16:50:44.699Z,13.40
2023-05-07T16:53:14.996Z,14.30
2023-05-07T16:55:47.363Z,15.83
2023-05-07T16:58:17.264Z,14.87
2023-05-07T17:00:50.766Z,16.00
2023-05-07T17:03:21.580Z,13.40
2023-05-07T17:05:51.438Z,14.93
2023-05-07T17:08:21.178Z,15.70
2023-05-07T17:10:53.506Z,14.87
2023-05-07T17:13:23.351Z,17.03
2023-05-07T17:15:53.196Z,16.97
2023-05-07T17:18:22.957Z,21.33
2023-05-07T17:20:52.687Z,14.73
2023-05-07T17:23:22.660Z,16.37
2023-05-07T17:25:54.968Z,14.40
2023-05-07T17:28:24.693Z,15.53
2023-05-07T17:30:54.492Z,17.43
2023-05-07T17:33:24.307Z,15.97
2023-05-07T17:35:56.119Z,12.57
2023-05-07T17:38:26.040Z,12.63
2023-05-07T17:40:58.459Z,13.93
2023-05-07T17:43:28.244Z,15.70
2023-05-07T17:45:58.058Z,14.67
2023-05-07T17:48:28.072Z,14.10
2023-05-07T17:51:04.108Z,13.33
2023-05-07T17:53:34.024Z,15.03
2023-05-07T17:56:06.450Z,13.77
2023-05-07T17:58:46.304Z,13.80
2023-05-07T18:01:26.424Z,15.40
2023-05-07T18:03:56.259Z,17.70
2023-05-07T18:06:26.113Z,16.50
2023-05-07T18:08:57.049Z,15.67
2023-05-07T18:11:29.485Z,15.07
2023-05-07T18:13:59.243Z,18.10
2023-05-07T18:16:29.281Z,20.97
2023-05-07T18:18:59.104Z,14.13
2023-05-07T18:21:28.930Z,12.40
2023-05-07T18:23:58.727Z,12.63
2023-05-07T18:26:31.064Z,16.93
2023-05-07T18:29:00.820Z,17.13
2023-05-07T18:31:30.583Z,16.17
2023-05-07T18:34:00.329Z,22.43
2023-05-07T18:36:30.062Z,16.63
2023-05-07T18:38:59.791Z,27.27
2023-05-07T18:41:32.093Z,15.67
2023-05-07T18:44:01.850Z,13.50
2023-05-07T18:46:31.890Z,13.63
2023-05-07T18:49:01.659Z,16.63
2023-05-07T18:51:31.458Z,17.63
2023-05-07T18:54:02.283Z,12.33
2023-05-07T18:56:34.694Z,12.97
2023-05-07T18:59:04.519Z,12.30
2023-05-07T19:01:34.414Z,14.33
2023-05-07T19:04:04.382Z,11.23
2023-05-07T19:06:34.356Z,12.67
2023-05-07T19:09:04.994Z,12.50
2023-05-07T19:11:37.370Z,12.57
2023-05-07T19:14:07.581Z,16.23
2023-05-07T19:16:37.465Z,14.70
2023-05-07T19:19:07.727Z,11.77
2023-05-07T19:21:37.521Z,12.30
2023-05-07T19:24:07.727Z,10.70
2023-05-07T19:26:40.142Z,11.20
2023-05-07T19:29:17.298Z,12.53
2023-05-07T19:31:47.683Z,12.40
2023-05-07T19:34:17.667Z,15.13
2023-05-07T19:36:47.432Z,11.40
2023-05-07T19:39:18.681Z,11.27
2023-05-07T19:41:51.665Z,11.10
2023-05-07T19:44:21.442Z,10.10
2023-05-07T19:46:52.774Z,13.03
2023-05-07T19:49:25.384Z,10.30
2023-05-07T19:51:55.156Z,11.43
2023-05-07T19:54:24.929Z,13.00
2023-05-07T19:56:58.166Z,11.60
2023-05-07T19:59:28.342Z,11.77
2023-05-07T20:01:58.271Z,10.13
2023-05-07T20:04:32.564Z,9.47
2023-05-07T20:07:02.495Z,12.67
2023-05-07T20:09:32.344Z,11.07
2023-05-07T20:12:04.828Z,10.40
2023-05-07T20:14:34.866Z,12.93
2023-05-07T20:17:04.731Z,19.60
2023-05-07T20:19:34.517Z,11.90
2023-05-07T20:22:04.323Z,13.83
2023-05-07T20:24:34.109Z,9.93
2023-05-07T20:27:06.698Z,12.20
2023-05-07T20:29:36.762Z,11.17
2023-05-07T20:32:06.746Z,12.43
2023-05-07T20:34:36.579Z,10.07
2023-05-07T20:37:06.343Z,13.23
2023-05-07T20:39:36.132Z,13.60
2023-05-07T20:42:08.623Z,12.30
2023-05-07T20:44:38.522Z,11.27
2023-05-07T20:47:08.478Z,12.67
2023-05-07T20:49:38.227Z,11.77
2023-05-07T20:52:08.429Z,11.67
2023-05-07T20:54:40.464Z,11.83
2023-05-07T20:57:12.809Z,9.33
2023-05-07T20:59:42.901Z,11.53
2023-05-07T21:02:12.708Z,16.53
2023-05-07T21:04:42.582Z,11.00
2023-05-07T21:07:12.486Z,10.97
2023-05-07T21:09:42.623Z,9.63
2023-05-07T21:12:14.979Z,10.60
2023-05-07T21:14:44.758Z,9.03
2023-05-07T21:17:14.591Z,8.80
2023-05-07T21:19:44.394Z,11.97
2023-05-07T21:22:14.171Z,9.30
2023-05-07T21:24:44.099Z,12.83
2023-05-07T21:27:16.539Z,11.00
2023-05-07T21:29:46.371Z,10.40
2023-05-07T21:32:16.126Z,9.20
2023-05-07T21:34:46.759Z,9.40
2023-05-07T21:37:16.872Z,9.37
2023-05-07T21:39:46.669Z,9.60
2023-05-07T21:42:19.869Z,11.17
2023-05-07T21:44:51.105Z,8.90
2023-05-07T21:47:21.128Z,8.27
2023-05-07T21:49:50.905Z,7.87
2023-05-07T21:52:26.230Z,8.67
2023-05-07T21:54:56.147Z,8.80
2023-05-07T21:57:28.514Z,10.57
2023-05-07T21:59:58.263Z,11.50
2023-05-07T22:02:28.178Z,11.50
2023-05-07T22:04:58.060Z,11.83
2023-05-07T22:07:27.920Z,10.30
2023-05-07T22:09:57.669Z,12.20
2023-05-07T22:12:30.058Z,8.23
2023-05-07T22:14:59.894Z,10.57
2023-05-07T22:17:29.724Z,8.37
2023-05-07T22:19:59.530Z,8.93
2023-05-07T22:22:29.274Z,8.60
2023-05-07T22:24:59.016Z,8.07
2023-05-07T22:27:32.466Z,9.60
2023-05-07T22:30:02.256Z,7.57
2023-05-07T22:32:33.376Z,9.90
2023-05-07T22:35:03.554Z,8.37
2023-05-07T22:37:33.830Z,9.00
2023-05-07T22:40:03.733Z,8.73
2023-05-07T22:42:36.607Z,9.43
2023-05-07T22:45:06.830Z,8.67
2023-05-07T22:47:36.637Z,10.17
2023-05-07T22:50:07.558Z,10.23
2023-05-07T22:52:37.844Z,10.93
2023-05-07T22:55:08.675Z,10.70
2023-05-07T22:57:41.071Z,9.30
2023-05-07T23:00:12.543Z,10.93
2023-05-07T23:02:42.505Z,9.70
2023-05-07T23:05:12.405Z,10.00
2023-05-07T23:07:42.227Z,9.13
2023-05-07T23:10:12.611Z,9.20
2023-05-07T23:12:49.362Z,9.37
2023-05-07T23:15:19.655Z,8.63
2023-05-07T23:17:50.112Z,10.17
2023-05-07T23:20:20.314Z,7.27
2023-05-07T23:22:50.059Z,12.43
2023-05-07T23:25:20.110Z,8.10
2023-05-07T23:27:52.532Z,11.23
2023-05-07T23:30:22.547Z,7.63
2023-05-07T23:32:52.399Z,10.90
2023-05-07T23:35:22.483Z,8.43
2023-05-07T23:37:52.294Z,10.47
2023-05-07T23:40:22.070Z,9.63
2023-05-07T23:42:54.466Z,8.77
2023-05-07T23:45:24.309Z,8.80
2023-05-07T23:47:54.298Z,8.17
2023-05-07T23:50:24.352Z,10.13
2023-05-07T23:52:54.095Z,8.77
2023-05-07T23:55:23.856Z,8.07
2023-05-07T23:57:56.226Z,9.30
